createdAt,value
2022-09-05T00:00:55.351Z,17.19
2022-09-05T00:03:56.899Z,17.18
2022-09-05T00:07:04.679Z,17.14
2022-09-05T00:10:09.400Z,17.10
2022-09-05T00:13:07.704Z,17.08
2022-09-05T00:16:25.588Z,17.04
2022-09-05T00:24:20.545Z,17.01
2022-09-05T00:24:36.938Z,16.99
2022-09-05T00:26:13.678Z,16.95
2022-09-05T00:29:37.680Z,16.93
2022-09-05T00:32:37.117Z,16.91
2022-09-05T00:35:47.909Z,16.90
2022-09-05T00:38:42.232Z,16.89
2022-09-05T00:41:34.356Z,16.88
2022-09-05T00:44:29.135Z,16.89
2022-09-05T00:47:34.315Z,16.89
2022-09-05T00:50:32.988Z,16.87
2022-09-05T00:53:30.338Z,16.85
2022-09-05T00:56:38.530Z,16.81
2022-09-05T01:00:01.617Z,16.80
2022-09-05T01:03:21.291Z,16.79
2022-09-05T01:06:34.673Z,16.76
2022-09-05T01:09:36.011Z,16.72
2022-09-05T01:12:52.820Z,16.69
2022-09-05T01:15:55.781Z,16.64
2022-09-05T01:18:52.194Z,16.60
2022-09-05T01:21:55.857Z,16.58
2022-09-05T01:25:18.844Z,16.57
2022-09-05T01:29:13.581Z,16.56
2022-09-05T01:31:38.006Z,16.50
2022-09-05T01:34:38.526Z,16.44
2022-09-05T01:37:37.888Z,16.44
2022-09-05T01:40:38.774Z,16.41
2022-09-05T01:43:52.574Z,16.38
2022-09-05T01:46:54.468Z,16.31
2022-09-05T01:50:01.160Z,16.26
2022-09-05T01:53:17.421Z,16.22
2022-09-05T01:56:41.747Z,16.17
2022-09-05T01:59:45.856Z,16.15
2022-09-05T02:02:50.802Z,16.14
2022-09-05T02:06:02.988Z,16.13
2022-09-05T02:09:06.493Z,16.14
2022-09-05T02:12:00.536Z,16.11
2022-09-05T02:15:02.280Z,16.08
2022-09-05T02:17:57.250Z,16.08
2022-09-05T02:20:55.005Z,16.04
2022-09-05T02:23:50.049Z,16.00
2022-09-05T02:26:55.899Z,15.97
2022-09-05T02:29:55.891Z,15.94
2022-09-05T02:33:05.278Z,15.92
2022-09-05T02:36:09.813Z,15.86
2022-09-05T02:45:08.602Z,15.82
2022-09-05T02:45:20.600Z,15.76
2022-09-05T02:45:48.187Z,15.71
2022-09-05T02:48:52.592Z,15.66
2022-09-05T02:57:25.517Z,15.61
2022-09-05T02:57:35.419Z,15.56
2022-09-05T02:59:08.184Z,15.49
2022-09-05T03:02:25.060Z,15.41
2022-09-05T03:05:23.788Z,15.38
2022-09-05T03:08:35.959Z,15.35
2022-09-05T03:12:29.231Z,15.33
2022-09-05T03:16:04.525Z,15.24
2022-09-05T03:19:35.361Z,15.21
2022-09-05T03:23:07.533Z,15.17
2022-09-05T03:26:40.605Z,15.16
2022-09-05T03:29:58.611Z,15.07
2022-09-05T03:33:05.283Z,15.02
2022-09-05T03:36:29.076Z,14.95
2022-09-05T03:40:16.228Z,14.90
2022-09-05T03:43:37.589Z,14.88
2022-09-05T03:46:44.095Z,14.86
2022-09-05T03:51:45.842Z,14.85
2022-09-05T03:57:23.407Z,14.84
2022-09-05T03:57:36.974Z,14.86
2022-09-05T04:00:34.367Z,14.81
2022-09-05T04:08:17.882Z,14.81
2022-09-05T04:08:29.813Z,14.84
2022-09-05T04:09:59.297Z,14.79
2022-09-05T04:12:55.760Z,14.75
2022-09-05T04:15:50.126Z,14.74
2022-09-05T04:18:52.184Z,14.70
2022-09-05T04:21:50.417Z,14.67
2022-09-05T04:24:47.926Z,14.66
2022-09-05T04:27:56.198Z,14.67
2022-09-05T04:30:50.979Z,14.65
2022-09-05T04:33:54.846Z,14.65
2022-09-05T04:36:48.518Z,14.67
2022-09-05T04:39:40.172Z,14.69
2022-09-05T04:42:31.938Z,14.71
2022-09-05T04:45:24.269Z,14.72
2022-09-05T04:48:21.638Z,14.73
2022-09-05T04:51:45.026Z,14.78
2022-09-05T04:54:54.635Z,14.82
2022-09-05T04:57:52.839Z,14.81
2022-09-05T05:06:05.818Z,14.85
2022-09-05T05:06:15.114Z,14.88
2022-09-05T05:07:33.106Z,14.94
2022-09-05T05:15:10.113Z,14.99
2022-09-05T05:17:57.193Z,15.05
2022-09-05T05:18:06.878Z,15.13
2022-09-05T05:20:41.281Z,15.24
2022-09-05T05:23:40.521Z,15.29
2022-09-05T05:26:38.328Z,15.34
2022-09-05T05:29:40.427Z,15.42
2022-09-05T05:32:45.165Z,15.45
2022-09-05T05:35:48.040Z,15.51
2022-09-05T05:38:47.960Z,15.61
2022-09-05T05:41:45.995Z,15.69
2022-09-05T05:44:39.729Z,15.78
2022-09-05T05:47:36.996Z,15.90
2022-09-05T05:50:39.968Z,16.12
2022-09-05T05:53:44.905Z,16.29
2022-09-05T05:56:48.893Z,16.36
2022-09-05T06:00:15.215Z,16.45
2022-09-05T06:03:40.912Z,16.56
2022-09-05T06:06:57.487Z,16.63
2022-09-05T06:14:49.881Z,16.74
2022-09-05T06:14:59.696Z,16.88
2022-09-05T06:17:28.249Z,17.02
2022-09-05T06:22:06.807Z,17.20
2022-09-05T06:24:09.369Z,17.44
2022-09-05T06:28:04.690Z,17.96
2022-09-05T06:31:29.922Z,19.12
2022-09-05T06:34:38.472Z,20.15
2022-09-05T06:37:36.577Z,21.85
2022-09-05T06:40:34.939Z,23.22
2022-09-05T06:43:42.354Z,25.61
2022-09-05T06:46:55.066Z,28.22
2022-09-05T06:50:24.649Z,30.00
2022-09-05T06:53:48.404Z,31.70
2022-09-05T06:56:52.699Z,33.56
2022-09-05T07:00:06.025Z,35.15
2022-09-05T07:03:27.423Z,36.92
2022-09-05T07:06:48.056Z,38.77
2022-09-05T07:09:52.788Z,40.32
2022-09-05T07:12:50.440Z,41.58
2022-09-05T07:15:52.136Z,41.99
2022-09-05T07:18:55.012Z,40.48
2022-09-05T07:22:06.408Z,38.61
2022-09-05T07:25:21.683Z,38.98
2022-09-05T07:28:28.601Z,39.98
2022-09-05T07:31:27.709Z,40.14
2022-09-05T07:34:33.044Z,39.62
2022-09-05T07:37:27.069Z,39.32
2022-09-05T07:40:25.078Z,38.14
2022-09-05T07:43:22.844Z,36.30
2022-09-05T07:46:16.548Z,34.90
2022-09-05T07:49:10.177Z,33.59
2022-09-05T07:56:53.220Z,32.45
2022-09-05T07:57:00.913Z,31.90
2022-09-05T07:58:44.713Z,33.33
2022-09-05T08:01:36.881Z,35.01
2022-09-05T08:04:32.570Z,36.70
2022-09-05T08:07:48.079Z,38.26
2022-09-05T08:11:23.855Z,40.18
2022-09-05T08:14:38.403Z,40.70
2022-09-05T08:17:21.167Z,40.76
2022-09-05T08:20:34.050Z,39.38
2022-09-05T08:23:44.606Z,38.10
2022-09-05T08:26:46.417Z,39.00
2022-09-05T08:29:42.202Z,40.58
2022-09-05T08:32:44.706Z,40.94
2022-09-05T08:35:41.413Z,40.81
2022-09-05T08:38:40.390Z,38.81
2022-09-05T08:41:49.959Z,36.87
2022-09-05T08:46:40.994Z,34.93
2022-09-05T08:48:18.868Z,32.99
2022-09-05T08:51:26.530Z,32.20
2022-09-05T08:54:27.333Z,31.48
2022-09-05T08:57:26.797Z,30.71
2022-09-05T09:00:24.502Z,30.05
2022-09-05T09:03:29.539Z,29.47
2022-09-05T09:06:34.344Z,28.97
2022-09-05T09:09:37.885Z,28.32
2022-09-05T09:13:00.370Z,27.72
2022-09-05T09:15:59.331Z,27.17
2022-09-05T09:19:08.358Z,26.74
2022-09-05T09:22:12.021Z,26.41
2022-09-05T09:25:15.872Z,26.08
2022-09-05T09:28:48.275Z,25.75
2022-09-05T09:32:03.087Z,25.11
2022-09-05T09:35:05.662Z,24.82
2022-09-05T09:38:23.462Z,24.68
2022-09-05T09:41:46.209Z,24.61
2022-09-05T09:45:23.022Z,24.50
2022-09-05T09:48:51.672Z,24.26
2022-09-05T09:51:57.430Z,24.30
2022-09-05T09:55:24.834Z,24.40
2022-09-05T09:58:52.494Z,24.47
2022-09-05T10:01:54.854Z,24.53
2022-09-05T10:10:38.326Z,24.63
2022-09-05T10:10:48.842Z,24.61
2022-09-05T10:13:07.767Z,24.56
2022-09-05T10:16:47.438Z,24.36
2022-09-05T10:20:11.558Z,24.43
2022-09-05T10:23:33.039Z,24.43
2022-09-05T10:26:58.834Z,24.25
2022-09-05T10:30:12.113Z,24.21
2022-09-05T10:35:19.763Z,24.20
2022-09-05T10:36:37.720Z,24.04
2022-09-05T10:39:30.935Z,24.05
2022-09-05T10:42:31.731Z,24.12
2022-09-05T10:45:38.160Z,24.15
2022-09-05T10:48:38.442Z,24.13
2022-09-05T10:51:37.742Z,24.04
2022-09-05T10:54:43.617Z,23.97
2022-09-05T10:57:42.807Z,23.99
2022-09-05T11:02:25.904Z,24.05
2022-09-05T11:04:24.286Z,24.02
2022-09-05T11:07:19.310Z,23.93
2022-09-05T11:10:26.010Z,23.79
2022-09-05T11:13:25.865Z,23.86
2022-09-05T11:16:29.599Z,23.99
2022-09-05T11:19:27.689Z,24.08
2022-09-05T11:22:22.993Z,24.34
2022-09-05T11:25:36.296Z,24.53
2022-09-05T11:28:59.787Z,24.48
2022-09-05T11:35:45.337Z,24.40
2022-09-05T11:39:52.769Z,24.28
2022-09-05T11:40:03.622Z,24.20
2022-09-05T11:42:46.055Z,24.21
2022-09-05T11:45:58.462Z,24.50
2022-09-05T11:49:20.365Z,25.39
2022-09-05T11:52:52.805Z,26.47
2022-09-05T11:56:14.344Z,26.69
2022-09-05T11:59:35.038Z,26.35
2022-09-05T12:02:39.512Z,25.95
2022-09-05T12:05:58.727Z,25.74
2022-09-05T12:08:56.444Z,25.72
2022-09-05T12:12:02.661Z,26.19
2022-09-05T12:15:11.845Z,26.82
2022-09-05T12:18:24.153Z,28.54
2022-09-05T12:21:33.122Z,30.64
2022-09-05T12:25:25.834Z,32.72
2022-09-05T12:29:21.702Z,34.29
2022-09-05T12:32:48.883Z,34.99
2022-09-05T12:36:13.387Z,34.89
2022-09-05T12:40:56.295Z,33.86
2022-09-05T12:42:08.473Z,33.18
2022-09-05T12:45:10.327Z,33.99
2022-09-05T12:48:11.700Z,33.97
2022-09-05T12:51:07.029Z,32.69
2022-09-05T12:54:00.824Z,31.54
2022-09-05T13:00:58.521Z,30.60
2022-09-05T13:02:58.987Z,29.80
2022-09-05T13:03:32.139Z,28.91
2022-09-05T13:06:31.961Z,28.22
2022-09-05T13:09:58.271Z,27.90
2022-09-05T13:14:54.909Z,27.73
2022-09-05T13:15:58.449Z,27.16
2022-09-05T13:18:50.902Z,26.70
2022-09-05T13:21:53.385Z,26.28
2022-09-05T13:24:49.801Z,26.04
2022-09-05T13:27:47.238Z,25.89
2022-09-05T13:32:16.255Z,25.81
2022-09-05T13:38:04.153Z,25.70
2022-09-05T13:38:06.157Z,25.72
2022-09-05T13:40:39.350Z,25.62
2022-09-05T13:43:37.160Z,25.63
2022-09-05T13:46:39.751Z,25.70
2022-09-05T13:49:37.480Z,25.61
2022-09-05T13:52:36.064Z,25.50
2022-09-05T13:55:38.529Z,25.42
2022-09-05T13:58:40.396Z,25.35
2022-09-05T14:02:26.466Z,25.26
2022-09-05T14:05:36.058Z,25.06
2022-09-05T14:08:44.744Z,24.95
2022-09-05T14:11:55.692Z,24.81
2022-09-05T14:15:09.334Z,24.72
2022-09-05T14:18:20.304Z,24.73
2022-09-05T14:21:18.276Z,24.75
2022-09-05T14:24:16.944Z,24.70
2022-09-05T14:27:27.911Z,24.40
2022-09-05T14:32:14.424Z,24.23
2022-09-05T14:37:41.132Z,24.22
2022-09-05T14:37:51.716Z,24.16
2022-09-05T14:40:29.240Z,24.30
2022-09-05T14:43:51.643Z,24.34
2022-09-05T14:46:41.339Z,24.20
2022-09-05T14:49:36.427Z,24.07
2022-09-05T14:52:23.600Z,23.94
2022-09-05T15:01:46.274Z,23.70
2022-09-05T15:02:51.877Z,23.69
2022-09-05T15:07:04.606Z,23.65
2022-09-05T15:12:20.000Z,23.61
2022-09-05T15:12:44.082Z,23.56
2022-09-05T15:15:29.098Z,23.49
2022-09-05T15:18:05.657Z,23.42
2022-09-05T15:20:41.156Z,23.39
2022-09-05T15:23:32.191Z,23.34
2022-09-05T15:26:09.061Z,23.31
2022-09-05T15:28:46.935Z,23.31
2022-09-05T15:31:28.394Z,23.31
2022-09-05T15:34:26.763Z,23.34
2022-09-05T15:37:12.182Z,23.36
2022-09-05T15:40:04.203Z,23.33
2022-09-05T15:42:40.410Z,23.31
2022-09-05T15:45:20.484Z,23.23
2022-09-05T15:48:14.798Z,23.12
2022-09-05T15:50:51.867Z,23.05
2022-09-05T15:53:33.064Z,23.00
2022-09-05T15:56:20.943Z,22.94
2022-09-05T15:59:01.992Z,22.80
2022-09-05T16:01:58.067Z,22.74
2022-09-05T16:08:35.444Z,22.69
2022-09-05T16:10:35.028Z,22.66
2022-09-05T16:10:59.013Z,22.68
2022-09-05T16:13:52.394Z,22.67
2022-09-05T16:20:18.688Z,22.63
2022-09-05T16:23:27.595Z,22.55
2022-09-05T16:23:31.430Z,22.60
2022-09-05T16:25:14.719Z,22.51
2022-09-05T16:27:58.827Z,22.41
2022-09-05T16:30:34.935Z,22.31
2022-09-05T16:33:13.106Z,22.27
2022-09-05T16:35:54.623Z,22.26
2022-09-05T16:38:49.331Z,22.23
2022-09-05T16:41:33.038Z,22.17
2022-09-05T16:44:12.173Z,22.08
2022-09-05T16:47:04.924Z,22.03
2022-09-05T16:49:48.271Z,22.00
2022-09-05T16:52:28.951Z,21.97
2022-09-05T16:55:08.189Z,21.94
2022-09-05T16:57:58.205Z,21.89
2022-09-05T17:00:49.622Z,21.84
2022-09-05T17:03:31.969Z,21.73
2022-09-05T17:06:25.912Z,21.66
2022-09-05T17:09:12.792Z,21.61
2022-09-05T17:11:59.969Z,21.56
2022-09-05T17:14:38.241Z,21.51
2022-09-05T17:18:04.784Z,21.44
2022-09-05T17:20:17.535Z,21.37
2022-09-05T17:28:41.755Z,21.27
2022-09-05T17:29:23.976Z,21.18
2022-09-05T17:29:24.827Z,21.07
2022-09-05T17:32:01.128Z,20.98
2022-09-05T17:35:16.518Z,20.89
2022-09-05T17:38:19.719Z,20.76
2022-09-05T17:41:27.415Z,20.66
2022-09-05T17:44:07.762Z,20.56
2022-09-05T17:46:49.799Z,20.49
2022-09-05T17:49:43.316Z,20.38
2022-09-05T17:52:26.129Z,20.30
2022-09-05T17:54:59.802Z,20.22
2022-09-05T17:57:41.605Z,20.13
2022-09-05T18:01:07.082Z,20.08
2022-09-05T18:04:17.520Z,20.01
2022-09-05T18:07:00.502Z,19.95
2022-09-05T18:10:00.500Z,19.89
2022-09-05T18:13:13.766Z,19.78
2022-09-05T18:16:13.321Z,19.72
2022-09-05T18:19:28.842Z,19.65
2022-09-05T18:21:51.797Z,19.59
2022-09-05T18:24:37.080Z,19.51
2022-09-05T18:27:39.404Z,19.47
2022-09-05T18:33:53.488Z,19.34
2022-09-05T18:36:41.532Z,19.27
2022-09-05T18:39:47.692Z,19.21
2022-09-05T18:42:25.946Z,19.17
2022-09-05T18:45:16.546Z,19.09
2022-09-05T18:47:58.948Z,19.04
2022-09-05T18:50:40.442Z,18.98
2022-09-05T18:53:25.317Z,18.93
2022-09-05T18:56:20.122Z,18.87
2022-09-05T18:59:09.985Z,18.78
2022-09-05T19:01:52.820Z,18.74
2022-09-05T19:04:40.289Z,18.70
2022-09-05T19:07:22.410Z,18.69
2022-09-05T19:10:34.702Z,18.65
2022-09-05T19:13:05.650Z,18.62
2022-09-05T19:15:50.616Z,18.59
2022-09-05T19:18:36.914Z,18.52
2022-09-05T19:21:16.745Z,18.47
2022-09-05T19:23:57.554Z,18.41
2022-09-05T19:26:34.507Z,18.36
2022-09-05T19:36:49.360Z,18.29
2022-09-05T19:36:54.920Z,18.25
2022-09-05T19:37:03.125Z,18.20
2022-09-05T19:38:02.732Z,18.15
2022-09-05T19:45:36.746Z,18.08
2022-09-05T19:47:38.911Z,18.03
2022-09-05T19:47:55.588Z,18.02
2022-09-05T19:49:24.284Z,18.01
2022-09-05T19:51:59.665Z,18.00
2022-09-05T19:54:37.063Z,17.98
2022-09-05T19:57:16.902Z,17.97
2022-09-05T19:59:56.833Z,17.99
2022-09-05T20:02:33.466Z,17.97
2022-09-05T20:05:11.526Z,17.96
2022-09-05T20:07:54.391Z,17.96
2022-09-05T20:10:31.500Z,17.97
2022-09-05T20:13:23.613Z,17.96
2022-09-05T20:15:57.304Z,17.98
2022-09-05T20:18:37.013Z,17.97
2022-09-05T20:21:14.541Z,17.96
2022-09-05T20:23:51.835Z,17.97
2022-09-05T20:26:29.790Z,17.98
2022-09-05T20:29:07.745Z,17.97
2022-09-05T20:31:42.434Z,17.96
2022-09-05T20:35:29.586Z,17.96
2022-09-05T20:43:10.589Z,17.96
2022-09-05T20:43:29.306Z,17.92
2022-09-05T20:43:37.345Z,17.88
2022-09-05T20:48:01.946Z,17.87
2022-09-05T20:54:05.271Z,17.84
2022-09-05T20:54:23.204Z,17.82
2022-09-05T20:55:38.651Z,17.81
2022-09-05T20:58:16.508Z,17.81
2022-09-05T21:01:19.600Z,17.81
2022-09-05T21:03:59.402Z,17.76
2022-09-05T21:06:35.098Z,17.75
2022-09-05T21:09:24.664Z,17.75
2022-09-05T21:12:06.466Z,17.74
2022-09-05T21:14:43.257Z,17.71
2022-09-05T21:17:24.314Z,17.70
2022-09-05T21:20:07.348Z,17.64
2022-09-05T21:22:45.608Z,17.62
2022-09-05T21:25:42.205Z,17.60
2022-09-05T21:28:36.526Z,17.55
2022-09-05T21:31:16.208Z,17.54
2022-09-05T21:33:52.985Z,17.53
2022-09-05T21:36:32.431Z,17.53
2022-09-05T21:39:06.141Z,17.51
2022-09-05T21:41:40.261Z,17.48
2022-09-05T21:47:35.580Z,17.43
2022-09-05T21:47:47.728Z,17.38
2022-09-05T21:50:19.253Z,17.33
2022-09-05T21:53:46.964Z,17.30
2022-09-05T21:59:29.035Z,17.19
2022-09-05T21:59:30.624Z,17.26
2022-09-05T22:01:53.344Z,17.12
2022-09-05T22:04:27.008Z,17.11
2022-09-05T22:07:02.967Z,17.10
2022-09-05T22:09:36.649Z,17.08
2022-09-05T22:12:26.945Z,17.04
2022-09-05T22:15:26.410Z,16.96
2022-09-05T22:18:16.766Z,16.90
2022-09-05T22:21:32.239Z,16.82
2022-09-05T22:23:51.889Z,16.76
2022-09-05T22:26:25.472Z,16.75
2022-09-05T22:29:00.640Z,16.72
2022-09-05T22:31:34.609Z,16.67
2022-09-05T22:34:08.177Z,16.60
2022-09-05T22:36:43.776Z,16.54
2022-09-05T22:39:36.264Z,16.51
2022-09-05T22:42:11.851Z,16.42
2022-09-05T22:44:45.884Z,16.34
2022-09-05T22:47:20.278Z,16.27
2022-09-05T22:49:53.585Z,16.17
2022-09-05T22:52:27.358Z,16.05
2022-09-05T22:55:00.980Z,15.93
2022-09-05T22:57:34.200Z,15.90
2022-09-05T23:00:09.724Z,15.93
2022-09-05T23:02:43.973Z,15.91
2022-09-05T23:05:17.493Z,15.93
2022-09-05T23:07:50.885Z,15.90
2022-09-05T23:10:24.741Z,15.86
2022-09-05T23:12:58.576Z,15.84
2022-09-05T23:15:32.456Z,15.82
2022-09-05T23:18:06.709Z,15.75
2022-09-05T23:20:39.997Z,15.76
2022-09-05T23:23:13.843Z,15.75
2022-09-05T23:25:47.224Z,15.71
2022-09-05T23:28:20.666Z,15.68
2022-09-05T23:30:54.202Z,15.67
2022-09-05T23:33:27.978Z,15.67
2022-09-05T23:36:04.884Z,15.64
2022-09-05T23:38:38.680Z,15.61
2022-09-05T23:41:14.238Z,15.56
2022-09-05T23:43:47.912Z,15.54
2022-09-05T23:46:38.824Z,15.46
2022-09-05T23:49:12.206Z,15.36
2022-09-05T23:51:45.596Z,15.30
2022-09-05T23:54:18.969Z,15.23
2022-09-05T23:56:52.664Z,15.20
2022-09-05T23:59:26.154Z,15.16
